Terminal Aerodrome Forecast
Issued by NWS

Home | Current Version | Previous Version | Text Only | Print | Product List | Glossary On
Versions: 1 2 3 4 5 6 7 8 9 10 11 12 13 14 15 16 17 18 19 20 21 22
000
FTUS43 KGRR 160900 AAC
TAFBTL
TAF AMD
KBTL 160937Z 1610/1706 34003KT P6SM SCT035
     FM161040 VRB03KT 1/4SM FG OVC002
     FM161400 33004KT 2SM BR BKN012
     FM161500 31005KT 4SM BR SCT012 BKN025
     FM161600 30006KT P6SM SCT035=

USA.gov is the U.S. government's official web portal to all federal, state and local government web resources and services.